createdAt,value
2018-11-21T00:00:50.540Z,-0.10
2018-11-21T00:03:18.843Z,-0.20
2018-11-21T00:05:47.299Z,-0.20
2018-11-21T00:08:15.627Z,-0.10
2018-11-21T00:10:43.902Z,-0.10
2018-11-21T00:13:12.247Z,-0.10
2018-11-21T00:15:40.541Z,0.00
2018-11-21T00:18:08.825Z,0.00
2018-11-21T00:20:37.200Z,-0.10
2018-11-21T00:23:05.535Z,-0.10
2018-11-21T00:25:33.830Z,0.00
2018-11-21T00:28:02.378Z,0.00
2018-11-21T00:30:30.687Z,0.00
2018-11-21T00:32:58.987Z,-0.10
2018-11-21T00:35:27.348Z,-0.10
2018-11-21T00:37:55.602Z,0.00
2018-11-21T00:40:23.895Z,-0.20
2018-11-21T00:42:52.406Z,-0.20
2018-11-21T00:45:20.846Z,-0.30
2018-11-21T00:47:49.171Z,-0.30
2018-11-21T00:50:17.472Z,-0.20
2018-11-21T00:52:45.764Z,-0.30
2018-11-21T00:55:14.041Z,-0.40
2018-11-21T00:57:42.369Z,-0.20
2018-11-21T01:00:11.865Z,-0.20
2018-11-21T01:02:40.140Z,-0.30
2018-11-21T01:05:08.683Z,-0.30
2018-11-21T01:07:37.114Z,-0.30
2018-11-21T01:10:05.450Z,-0.20
2018-11-21T01:12:33.930Z,-0.40
2018-11-21T01:15:02.240Z,-0.40
2018-11-21T01:17:30.525Z,-0.30
2018-11-21T01:19:58.914Z,-0.20
2018-11-21T01:22:27.235Z,-0.20
2018-11-21T01:24:55.551Z,-0.40
2018-11-21T01:27:23.988Z,-0.40
2018-11-21T01:29:52.267Z,-0.30
2018-11-21T01:32:20.568Z,-0.40
2018-11-21T01:34:49.007Z,-0.30
2018-11-21T01:37:17.304Z,-0.30
2018-11-21T01:39:45.601Z,-0.30
2018-11-21T01:42:14.169Z,-0.30
2018-11-21T01:44:42.505Z,-0.30
2018-11-21T01:47:10.818Z,-0.40
2018-11-21T01:49:39.375Z,-0.40
2018-11-21T01:52:07.702Z,-0.40
2018-11-21T01:54:36.019Z,-0.30
2018-11-21T01:57:04.609Z,-0.20
2018-11-21T01:59:32.912Z,-0.10
2018-11-21T02:02:01.238Z,-0.10
2018-11-21T02:04:29.774Z,-0.10
2018-11-21T02:06:58.069Z,0.00
2018-11-21T02:09:26.375Z,-0.10
2018-11-21T02:14:27.764Z,0.00
2018-11-21T02:17:08.704Z,0.20
2018-11-21T02:19:49.035Z,0.10
2018-11-21T02:22:30.249Z,0.20
2018-11-21T02:25:10.941Z,0.30
2018-11-21T02:27:51.241Z,0.40
2018-11-21T02:30:32.348Z,0.40
2018-11-21T02:33:13.362Z,0.30
2018-11-21T02:35:53.994Z,0.40
2018-11-21T02:38:34.824Z,0.30
2018-11-21T02:41:15.208Z,0.30
2018-11-21T02:43:56.055Z,0.40
2018-11-21T02:46:37.268Z,0.40
2018-11-21T02:49:17.962Z,0.50
2018-11-21T02:51:58.950Z,0.50
2018-11-21T02:54:39.303Z,0.50
2018-11-21T02:57:24.547Z,0.40
2018-11-21T03:00:05.563Z,0.40
2018-11-21T03:02:46.781Z,0.30
2018-11-21T03:05:27.509Z,0.30
2018-11-21T03:08:08.600Z,0.30
2018-11-21T03:10:49.017Z,0.30
2018-11-21T03:13:29.178Z,0.40
2018-11-21T03:16:09.691Z,0.40
2018-11-21T03:18:50.359Z,0.40
2018-11-21T03:21:31.016Z,0.40
2018-11-21T03:24:12.300Z,0.50
2018-11-21T03:26:53.114Z,0.50
2018-11-21T03:29:33.622Z,0.40
2018-11-21T03:32:14.138Z,0.50
2018-11-21T03:34:55.307Z,0.60
2018-11-21T03:37:35.809Z,0.60
2018-11-21T03:40:15.966Z,0.60
2018-11-21T03:42:56.924Z,0.60
2018-11-21T03:45:37.266Z,0.70
2018-11-21T03:48:17.733Z,0.80
2018-11-21T03:50:58.104Z,0.90
2018-11-21T03:53:38.389Z,0.90
2018-11-21T03:56:18.674Z,0.90
2018-11-21T03:58:59.025Z,1.00
2018-11-21T04:01:39.913Z,1.00
2018-11-21T04:04:20.559Z,0.90
2018-11-21T04:07:00.895Z,0.90
2018-11-21T04:15:18.940Z,1.20
2018-11-21T04:17:59.251Z,1.20
2018-11-21T04:20:40.583Z,1.20
2018-11-21T04:23:21.074Z,1.30
2018-11-21T04:26:01.688Z,1.40
2018-11-21T04:28:41.970Z,1.40
2018-11-21T04:31:22.285Z,1.40
2018-11-21T04:34:03.307Z,1.40
2018-11-21T04:36:44.790Z,1.40
2018-11-21T04:39:25.173Z,1.50
2018-11-21T04:42:05.925Z,1.50
2018-11-21T04:44:47.059Z,1.50
2018-11-21T04:47:27.628Z,1.50
2018-11-21T04:50:08.102Z,1.40
2018-11-21T04:52:49.274Z,1.40
2018-11-21T04:55:29.572Z,1.60
2018-11-21T04:58:10.634Z,1.50
2018-11-21T05:00:51.631Z,1.40
2018-11-21T05:03:32.454Z,1.50
2018-11-21T05:06:12.728Z,1.40
2018-11-21T05:08:53.120Z,1.40
2018-11-21T05:11:33.636Z,1.30
2018-11-21T05:14:13.971Z,1.50
2018-11-21T05:16:54.618Z,1.50
2018-11-21T05:19:35.049Z,1.50
2018-11-21T05:22:15.610Z,1.50
2018-11-21T05:24:56.230Z,1.50
2018-11-21T05:27:37.010Z,1.30
2018-11-21T05:30:17.449Z,1.40
2018-11-21T05:32:58.608Z,1.50
2018-11-21T05:35:37.588Z,1.50
2018-11-21T05:38:25.304Z,1.50
2018-11-21T05:41:05.937Z,1.50
2018-11-21T05:43:47.115Z,1.50
2018-11-21T05:46:27.387Z,1.60
2018-11-21T05:49:07.969Z,1.60
2018-11-21T05:51:48.964Z,1.50
2018-11-21T05:54:29.716Z,1.40
2018-11-21T05:57:10.192Z,1.50
2018-11-21T05:59:51.274Z,1.40
2018-11-21T06:02:31.655Z,1.50
2018-11-21T06:05:12.404Z,1.50
2018-11-21T06:07:52.884Z,1.50
2018-11-21T06:10:33.913Z,1.40
2018-11-21T06:13:14.221Z,1.50
2018-11-21T06:15:42.779Z,1.50
2018-11-21T06:18:30.504Z,1.50
2018-11-21T06:21:10.876Z,1.40
2018-11-21T06:23:39.634Z,1.50
2018-11-21T06:26:07.871Z,1.60
2018-11-21T06:28:36.199Z,1.70
2018-11-21T06:31:24.036Z,1.70
2018-11-21T06:33:52.462Z,1.60
2018-11-21T06:36:20.746Z,1.70
2018-11-21T06:38:49.182Z,1.60
2018-11-21T06:41:17.458Z,1.70
2018-11-21T06:43:45.747Z,1.70
2018-11-21T06:46:14.029Z,1.60
2018-11-21T06:48:42.307Z,1.60
2018-11-21T06:51:10.554Z,1.60
2018-11-21T06:56:13.245Z,1.60
2018-11-21T06:58:41.987Z,1.60
2018-11-21T07:01:10.240Z,1.60
2018-11-21T07:03:38.554Z,1.70
2018-11-21T07:06:07.063Z,1.70
2018-11-21T07:08:35.342Z,1.70
2018-11-21T07:11:23.250Z,1.70
2018-11-21T07:14:11.138Z,1.70
2018-11-21T07:16:52.189Z,1.80
2018-11-21T07:19:20.620Z,1.80
2018-11-21T07:21:48.869Z,1.90
2018-11-21T07:27:11.478Z,2.00
2018-11-21T07:29:59.229Z,1.80
2018-11-21T07:32:47.250Z,1.80
2018-11-21T07:35:18.057Z,1.80
2018-11-21T07:37:44.979Z,1.80
2018-11-21T07:40:14.255Z,1.80
2018-11-21T07:42:43.672Z,1.80
2018-11-21T07:45:12.678Z,1.80
2018-11-21T07:47:41.666Z,1.80
2018-11-21T07:50:12.871Z,1.80
2018-11-21T07:52:41.337Z,1.90
2018-11-21T07:55:10.316Z,1.90
2018-11-21T07:57:49.379Z,2.00
2018-11-21T08:00:51.097Z,2.00
2018-11-21T08:03:19.910Z,2.10
2018-11-21T08:06:08.726Z,2.20
2018-11-21T08:08:59.092Z,2.30
2018-11-21T08:11:55.416Z,2.30
2018-11-21T08:14:41.467Z,2.40
2018-11-21T08:17:26.088Z,2.30
2018-11-21T08:20:12.022Z,2.40
2018-11-21T08:22:59.496Z,2.40
2018-11-21T08:25:39.752Z,2.40
2018-11-21T08:28:27.765Z,2.40
2018-11-21T08:30:56.150Z,2.40
2018-11-21T08:33:24.506Z,2.40
2018-11-21T08:35:53.088Z,2.60
2018-11-21T08:38:21.419Z,2.50
2018-11-21T08:40:49.681Z,2.60
2018-11-21T08:43:18.251Z,2.70
2018-11-21T08:45:46.662Z,2.70
2018-11-21T08:48:15.620Z,2.70
2018-11-21T08:50:43.974Z,2.60
2018-11-21T08:53:12.261Z,2.60
2018-11-21T08:55:40.546Z,2.50
2018-11-21T08:58:09.110Z,2.60
2018-11-21T09:00:37.401Z,2.60
2018-11-21T09:03:06.347Z,2.50
2018-11-21T09:05:34.815Z,2.50
2018-11-21T09:08:03.286Z,2.60
2018-11-21T09:12:59.133Z,2.70
2018-11-21T09:15:27.442Z,2.60
2018-11-21T09:17:55.718Z,2.80
2018-11-21T09:20:24.303Z,3.00
2018-11-21T09:22:52.598Z,3.00
2018-11-21T09:25:20.898Z,3.00
2018-11-21T09:27:49.336Z,2.90
2018-11-21T09:30:18.888Z,2.90
2018-11-21T09:32:48.460Z,2.90
2018-11-21T09:35:17.951Z,3.30
2018-11-21T09:37:46.392Z,3.20
2018-11-21T09:40:16.729Z,3.30
2018-11-21T09:42:46.271Z,3.50
2018-11-21T09:45:15.740Z,3.60
2018-11-21T09:47:44.041Z,3.50
2018-11-21T09:50:15.289Z,3.50
2018-11-21T09:52:43.648Z,3.70
2018-11-21T09:55:12.239Z,3.60
2018-11-21T09:57:40.669Z,3.70
2018-11-21T10:00:46.762Z,3.60
2018-11-21T10:03:22.958Z,3.80
2018-11-21T10:05:59.733Z,3.40
2018-11-21T10:08:38.350Z,3.60
2018-11-21T10:11:07.509Z,3.60
2018-11-21T10:13:35.751Z,3.40
2018-11-21T10:16:04.965Z,3.40
2018-11-21T10:18:34.047Z,3.30
2018-11-21T10:21:02.454Z,3.30
2018-11-21T10:23:31.088Z,3.30
2018-11-21T10:25:59.357Z,3.50
2018-11-21T10:28:27.653Z,3.40
2018-11-21T10:30:55.987Z,3.70
2018-11-21T10:33:24.296Z,3.60
2018-11-21T10:35:52.871Z,3.80
2018-11-21T10:38:21.167Z,3.50
2018-11-21T10:40:49.449Z,3.40
2018-11-21T10:43:17.779Z,3.40
2018-11-21T10:45:46.087Z,3.40
2018-11-21T10:48:14.417Z,3.30
2018-11-21T10:50:43.025Z,3.30
2018-11-21T10:53:11.424Z,3.30
2018-11-21T10:55:39.732Z,3.40
2018-11-21T10:58:08.213Z,3.20
2018-11-21T11:01:07.813Z,3.20
2018-11-21T11:03:48.252Z,3.20
2018-11-21T11:06:34.361Z,3.20
2018-11-21T11:09:30.830Z,3.20
2018-11-21T11:12:16.821Z,3.30
2018-11-21T11:15:13.443Z,3.40
2018-11-21T11:21:14.632Z,3.40
2018-11-21T11:24:03.130Z,3.40
2018-11-21T11:26:51.581Z,3.40
2018-11-21T11:32:23.914Z,3.30
2018-11-21T11:35:27.130Z,3.30
2018-11-21T11:38:15.637Z,3.20
2018-11-21T11:41:15.826Z,3.10
2018-11-21T11:44:15.845Z,3.10
2018-11-21T11:47:04.478Z,3.20
2018-11-21T11:49:53.071Z,3.20
2018-11-21T11:52:41.868Z,3.20
2018-11-21T11:55:30.809Z,3.30
2018-11-21T12:01:13.895Z,3.30
2018-11-21T12:04:07.227Z,3.30
2018-11-21T12:06:56.140Z,3.20
2018-11-21T12:09:44.569Z,3.20
2018-11-21T12:12:39.966Z,3.10
2018-11-21T12:15:40.441Z,3.20
2018-11-21T12:18:49.162Z,3.10
2018-11-21T12:21:38.001Z,3.20
2018-11-21T12:24:26.629Z,3.40
2018-11-21T12:27:26.461Z,3.50
2018-11-21T12:30:15.082Z,3.70
2018-11-21T12:33:03.685Z,3.90
2018-11-21T12:35:52.452Z,3.90
2018-11-21T12:38:59.837Z,4.00
2018-11-21T12:41:48.308Z,4.10
2018-11-21T12:44:36.732Z,4.10
2018-11-21T12:47:25.478Z,4.30
2018-11-21T12:50:13.922Z,4.40
2018-11-21T12:53:02.958Z,4.50
2018-11-21T12:55:51.473Z,4.50
2018-11-21T12:58:40.228Z,4.40
2018-11-21T13:01:16.571Z,4.20
2018-11-21T13:04:05.311Z,4.00
2018-11-21T13:06:56.437Z,3.90
2018-11-21T13:09:59.177Z,4.10
2018-11-21T13:12:47.821Z,4.20
2018-11-21T13:15:36.367Z,4.20
2018-11-21T13:18:20.691Z,4.20
2018-11-21T13:21:28.071Z,4.10
2018-11-21T13:24:35.469Z,4.20
2018-11-21T13:27:24.401Z,4.20
2018-11-21T13:30:15.749Z,4.20
2018-11-21T13:33:04.489Z,4.30
2018-11-21T13:39:10.556Z,4.30
2018-11-21T13:41:59.020Z,4.20
2018-11-21T13:48:05.734Z,4.00
2018-11-21T13:50:54.515Z,4.00
2018-11-21T13:56:18.833Z,4.00
2018-11-21T13:58:48.556Z,3.90
2018-11-21T14:01:18.306Z,4.00
2018-11-21T14:03:48.081Z,3.90
2018-11-21T14:06:17.911Z,3.90
2018-11-21T14:09:28.629Z,3.90
2018-11-21T14:12:10.172Z,3.90
2018-11-21T14:14:50.849Z,3.80
2018-11-21T14:17:27.364Z,3.80
2018-11-21T14:19:50.382Z,3.80
2018-11-21T14:22:20.230Z,3.90
2018-11-21T14:24:50.075Z,3.90
2018-11-21T14:27:38.786Z,3.80
2018-11-21T14:30:20.018Z,3.70
2018-11-21T14:32:50.286Z,3.60
2018-11-21T14:38:39.485Z,3.80
2018-11-21T14:41:09.486Z,3.80
2018-11-21T14:43:39.427Z,3.80
2018-11-21T14:46:10.048Z,3.60
2018-11-21T14:48:40.353Z,3.70
2018-11-21T14:51:10.038Z,3.80
2018-11-21T14:53:40.205Z,3.80
2018-11-21T14:59:29.929Z,3.70
